sensor_id;sensor_type;location;lat;lon;timestamp;temperature;humidity
32400;DHT22;45045;45.440;9.178;2023-02-04T00:01:04;13.20;99.90
32400;DHT22;45045;45.440;9.178;2023-02-04T00:03:30;13.20;99.90
32400;DHT22;45045;45.440;9.178;2023-02-04T00:05:56;13.40;99.90
32400;DHT22;45045;45.440;9.178;2023-02-04T00:08:21;13.40;99.90
32400;DHT22;45045;45.440;9.178;2023-02-04T00:10:49;13.60;99.90
32400;DHT22;45045;45.440;9.178;2023-02-04T00:13:14;13.40;99.90
32400;DHT22;45045;45.440;9.178;2023-02-04T00:15:40;13.30;99.90
32400;DHT22;45045;45.440;9.178;2023-02-04T00:18:06;13.20;99.90
32400;DHT22;45045;45.440;9.178;2023-02-04T00:20:32;13.30;99.90
32400;DHT22;45045;45.440;9.178;2023-02-04T00:22:58;13.20;99.90
32400;DHT22;45045;45.440;9.178;2023-02-04T00:25:24;12.90;99.90
32400;DHT22;45045;45.440;9.178;2023-02-04T00:27:49;12.90;99.90
32400;DHT22;45045;45.440;9.178;2023-02-04T00:30:15;12.70;99.90
32400;DHT22;45045;45.440;9.178;2023-02-04T00:32:41;12.90;99.90
32400;DHT22;45045;45.440;9.178;2023-02-04T00:35:07;12.80;99.90
32400;DHT22;45045;45.440;9.178;2023-02-04T00:37:33;12.90;99.90
32400;DHT22;45045;45.440;9.178;2023-02-04T00:39:59;12.80;99.90
32400;DHT22;45045;45.440;9.178;2023-02-04T00:42:25;12.60;99.90
32400;DHT22;45045;45.440;9.178;2023-02-04T00:44:51;12.60;99.90
32400;DHT22;45045;45.440;9.178;2023-02-04T00:47:17;12.60;99.90
32400;DHT22;45045;45.440;9.178;2023-02-04T00:49:42;12.60;99.90
32400;DHT22;45045;45.440;9.178;2023-02-04T00:52:08;12.60;99.90
32400;DHT22;45045;45.440;9.178;2023-02-04T00:54:34;12.50;99.90
32400;DHT22;45045;45.440;9.178;2023-02-04T00:56:59;12.50;99.90
32400;DHT22;45045;45.440;9.178;2023-02-04T00:59:25;12.60;99.90
32400;DHT22;45045;45.440;9.178;2023-02-04T01:01:51;12.50;99.90
32400;DHT22;45045;45.440;9.178;2023-02-04T01:04:17;12.60;99.90
32400;DHT22;45045;45.440;9.178;2023-02-04T01:06:42;12.60;99.90
32400;DHT22;45045;45.440;9.178;2023-02-04T01:09:08;12.70;99.90
32400;DHT22;45045;45.440;9.178;2023-02-04T01:11:35;12.80;99.90
32400;DHT22;45045;45.440;9.178;2023-02-04T01:14:01;12.70;99.90
32400;DHT22;45045;45.440;9.178;2023-02-04T01:16:26;12.60;99.90
32400;DHT22;45045;45.440;9.178;2023-02-04T01:18:52;13.00;99.90
32400;DHT22;45045;45.440;9.178;2023-02-04T01:21:23;12.60;99.90
32400;DHT22;45045;45.440;9.178;2023-02-04T01:23:48;12.70;99.90
32400;DHT22;45045;45.440;9.178;2023-02-04T01:26:15;12.50;99.80
32400;DHT22;45045;45.440;9.178;2023-02-04T01:28:41;12.40;99.70
32400;DHT22;45045;45.440;9.178;2023-02-04T01:31:07;12.30;99.90
32400;DHT22;45045;45.440;9.178;2023-02-04T01:33:32;12.20;99.90
32400;DHT22;45045;45.440;9.178;2023-02-04T01:35:58;12.20;99.90
32400;DHT22;45045;45.440;9.178;2023-02-04T01:38:24;12.20;99.90
32400;DHT22;45045;45.440;9.178;2023-02-04T01:40:49;12.00;99.90
32400;DHT22;45045;45.440;9.178;2023-02-04T01:43:16;11.90;99.90
32400;DHT22;45045;45.440;9.178;2023-02-04T01:45:44;11.90;99.90
32400;DHT22;45045;45.440;9.178;2023-02-04T01:48:09;11.70;99.70
32400;DHT22;45045;45.440;9.178;2023-02-04T01:50:37;11.80;99.90
32400;DHT22;45045;45.440;9.178;2023-02-04T01:53:03;11.70;99.90
32400;DHT22;45045;45.440;9.178;2023-02-04T01:55:31;11.60;99.90
32400;DHT22;45045;45.440;9.178;2023-02-04T01:57:56;11.60;99.90
32400;DHT22;45045;45.440;9.178;2023-02-04T02:00:29;11.50;99.90
32400;DHT22;45045;45.440;9.178;2023-02-04T02:02:55;11.50;99.90
32400;DHT22;45045;45.440;9.178;2023-02-04T02:05:27;11.40;99.90
32400;DHT22;45045;45.440;9.178;2023-02-04T02:07:55;11.40;99.90
32400;DHT22;45045;45.440;9.178;2023-02-04T02:10:23;11.40;99.90
32400;DHT22;45045;45.440;9.178;2023-02-04T02:12:48;11.40;99.90
32400;DHT22;45045;45.440;9.178;2023-02-04T02:15:15;11.30;99.90
32400;DHT22;45045;45.440;9.178;2023-02-04T02:17:41;11.30;99.40
32400;DHT22;45045;45.440;9.178;2023-02-04T02:20:09;11.30;98.00
32400;DHT22;45045;45.440;9.178;2023-02-04T02:22:57;11.40;97.20
32400;DHT22;45045;45.440;9.178;2023-02-04T02:25:24;11.30;96.50
32400;DHT22;45045;45.440;9.178;2023-02-04T02:27:49;11.30;96.20
32400;DHT22;45045;45.440;9.178;2023-02-04T02:30:15;11.30;95.80
32400;DHT22;45045;45.440;9.178;2023-02-04T02:32:43;11.30;95.60
32400;DHT22;45045;45.440;9.178;2023-02-04T02:35:09;11.50;94.60
32400;DHT22;45045;45.440;9.178;2023-02-04T02:37:35;11.40;94.50
32400;DHT22;45045;45.440;9.178;2023-02-04T02:40:02;11.30;94.60
32400;DHT22;45045;45.440;9.178;2023-02-04T02:42:28;11.30;94.60
32400;DHT22;45045;45.440;9.178;2023-02-04T02:44:54;11.30;94.60
32400;DHT22;45045;45.440;9.178;2023-02-04T02:47:22;11.30;94.60
32400;DHT22;45045;45.440;9.178;2023-02-04T02:49:49;11.30;94.70
32400;DHT22;45045;45.440;9.178;2023-02-04T02:52:16;11.20;94.80
32400;DHT22;45045;45.440;9.178;2023-02-04T02:54:42;11.30;94.90
32400;DHT22;45045;45.440;9.178;2023-02-04T02:57:17;11.20;95.10
32400;DHT22;45045;45.440;9.178;2023-02-04T02:59:44;11.20;95.30
32400;DHT22;45045;45.440;9.178;2023-02-04T03:02:12;11.20;95.50
32400;DHT22;45045;45.440;9.178;2023-02-04T03:04:44;11.20;96.00
32400;DHT22;45045;45.440;9.178;2023-02-04T03:07:11;11.30;95.90
32400;DHT22;45045;45.440;9.178;2023-02-04T03:09:38;11.20;96.00
32400;DHT22;45045;45.440;9.178;2023-02-04T03:12:04;11.30;96.00
32400;DHT22;45045;45.440;9.178;2023-02-04T03:14:31;11.20;95.90
32400;DHT22;45045;45.440;9.178;2023-02-04T03:16:58;11.20;95.90
32400;DHT22;45045;45.440;9.178;2023-02-04T03:19:27;11.10;96.00
32400;DHT22;45045;45.440;9.178;2023-02-04T03:21:54;11.00;96.10
32400;DHT22;45045;45.440;9.178;2023-02-04T03:24:21;11.00;96.10
32400;DHT22;45045;45.440;9.178;2023-02-04T03:26:47;11.10;96.20
32400;DHT22;45045;45.440;9.178;2023-02-04T03:29:13;11.00;96.20
32400;DHT22;45045;45.440;9.178;2023-02-04T03:31:39;11.10;96.10
32400;DHT22;45045;45.440;9.178;2023-02-04T03:34:05;11.00;95.60
32400;DHT22;45045;45.440;9.178;2023-02-04T03:36:31;10.90;95.70
32400;DHT22;45045;45.440;9.178;2023-02-04T03:38:57;10.90;95.70
32400;DHT22;45045;45.440;9.178;2023-02-04T03:41:22;10.90;95.80
32400;DHT22;45045;45.440;9.178;2023-02-04T03:43:48;10.80;95.60
32400;DHT22;45045;45.440;9.178;2023-02-04T03:46:14;10.80;95.80
32400;DHT22;45045;45.440;9.178;2023-02-04T03:48:40;10.70;95.60
32400;DHT22;45045;45.440;9.178;2023-02-04T03:51:05;10.70;95.80
32400;DHT22;45045;45.440;9.178;2023-02-04T03:53:31;10.70;95.60
32400;DHT22;45045;45.440;9.178;2023-02-04T03:55:57;10.70;95.50
32400;DHT22;45045;45.440;9.178;2023-02-04T03:58:23;10.60;95.50
32400;DHT22;45045;45.440;9.178;2023-02-04T04:00:49;10.60;95.60
32400;DHT22;45045;45.440;9.178;2023-02-04T04:03:14;10.70;95.80
32400;DHT22;45045;45.440;9.178;2023-02-04T04:05:40;10.70;95.70
32400;DHT22;45045;45.440;9.178;2023-02-04T04:08:06;10.50;95.90
32400;DHT22;45045;45.440;9.178;2023-02-04T04:10:32;10.60;96.10
32400;DHT22;45045;45.440;9.178;2023-02-04T04:12:57;10.50;96.20
32400;DHT22;45045;45.440;9.178;2023-02-04T04:15:23;10.50;96.50
32400;DHT22;45045;45.440;9.178;2023-02-04T04:17:49;10.50;96.60
32400;DHT22;45045;45.440;9.178;2023-02-04T04:20:15;10.50;96.60
32400;DHT22;45045;45.440;9.178;2023-02-04T04:22:41;10.50;96.90
32400;DHT22;45045;45.440;9.178;2023-02-04T04:25:07;10.50;96.90
32400;DHT22;45045;45.440;9.178;2023-02-04T04:27:33;10.50;97.20
32400;DHT22;45045;45.440;9.178;2023-02-04T04:29:59;10.40;97.20
32400;DHT22;45045;45.440;9.178;2023-02-04T04:32:25;10.50;97.30
32400;DHT22;45045;45.440;9.178;2023-02-04T04:34:51;10.40;97.30
32400;DHT22;45045;45.440;9.178;2023-02-04T04:37:16;10.50;97.50
32400;DHT22;45045;45.440;9.178;2023-02-04T04:39:42;10.30;97.60
32400;DHT22;45045;45.440;9.178;2023-02-04T04:42:08;10.60;97.90
32400;DHT22;45045;45.440;9.178;2023-02-04T04:44:34;10.60;97.40
32400;DHT22;45045;45.440;9.178;2023-02-04T04:47:00;10.60;97.30
32400;DHT22;45045;45.440;9.178;2023-02-04T04:49:25;10.60;97.40
32400;DHT22;45045;45.440;9.178;2023-02-04T04:51:51;10.50;97.40
32400;DHT22;45045;45.440;9.178;2023-02-04T04:54:18;10.40;97.50
32400;DHT22;45045;45.440;9.178;2023-02-04T04:56:44;10.40;97.50
32400;DHT22;45045;45.440;9.178;2023-02-04T04:59:09;10.40;97.50
32400;DHT22;45045;45.440;9.178;2023-02-04T05:01:35;10.40;97.70
32400;DHT22;45045;45.440;9.178;2023-02-04T05:04:01;10.30;97.70
32400;DHT22;45045;45.440;9.178;2023-02-04T05:06:28;10.40;97.70
32400;DHT22;45045;45.440;9.178;2023-02-04T05:08:54;10.40;97.70
32400;DHT22;45045;45.440;9.178;2023-02-04T05:11:20;10.40;97.70
32400;DHT22;45045;45.440;9.178;2023-02-04T05:13:47;10.30;97.60
32400;DHT22;45045;45.440;9.178;2023-02-04T05:16:12;10.30;97.60
32400;DHT22;45045;45.440;9.178;2023-02-04T05:18:39;10.30;97.60
32400;DHT22;45045;45.440;9.178;2023-02-04T05:21:06;10.30;97.60
32400;DHT22;45045;45.440;9.178;2023-02-04T05:23:32;10.30;97.70
32400;DHT22;45045;45.440;9.178;2023-02-04T05:25:58;10.30;97.90
32400;DHT22;45045;45.440;9.178;2023-02-04T05:28:24;10.30;98.00
32400;DHT22;45045;45.440;9.178;2023-02-04T05:30:49;10.20;98.10
32400;DHT22;45045;45.440;9.178;2023-02-04T05:33:15;10.20;98.20
32400;DHT22;45045;45.440;9.178;2023-02-04T05:35:41;10.10;98.00
32400;DHT22;45045;45.440;9.178;2023-02-04T05:38:07;10.20;98.00
32400;DHT22;45045;45.440;9.178;2023-02-04T05:40:33;10.20;98.10
32400;DHT22;45045;45.440;9.178;2023-02-04T05:42:58;10.20;98.00
32400;DHT22;45045;45.440;9.178;2023-02-04T05:45:24;10.20;98.20
32400;DHT22;45045;45.440;9.178;2023-02-04T05:47:49;10.00;98.20
32400;DHT22;45045;45.440;9.178;2023-02-04T05:50:15;10.10;98.30
32400;DHT22;45045;45.440;9.178;2023-02-04T05:52:41;10.00;98.10
32400;DHT22;45045;45.440;9.178;2023-02-04T05:55:08;10.00;98.40
32400;DHT22;45045;45.440;9.178;2023-02-04T05:57:35;10.00;98.20
32400;DHT22;45045;45.440;9.178;2023-02-04T06:00:00;9.90;97.90
32400;DHT22;45045;45.440;9.178;2023-02-04T06:02:26;10.00;97.60
32400;DHT22;45045;45.440;9.178;2023-02-04T06:04:52;9.90;97.70
32400;DHT22;45045;45.440;9.178;2023-02-04T06:07:17;9.90;97.80
32400;DHT22;45045;45.440;9.178;2023-02-04T06:09:43;10.00;97.40
32400;DHT22;45045;45.440;9.178;2023-02-04T06:12:09;10.00;97.30
32400;DHT22;45045;45.440;9.178;2023-02-04T06:14:35;9.90;97.50
32400;DHT22;45045;45.440;9.178;2023-02-04T06:17:00;10.00;97.00
32400;DHT22;45045;45.440;9.178;2023-02-04T06:19:26;10.20;96.10
32400;DHT22;45045;45.440;9.178;2023-02-04T06:21:52;10.00;96.20
32400;DHT22;45045;45.440;9.178;2023-02-04T06:24:17;10.00;95.60
32400;DHT22;45045;45.440;9.178;2023-02-04T06:26:43;9.90;95.50
32400;DHT22;45045;45.440;9.178;2023-02-04T06:29:09;9.90;95.10
32400;DHT22;45045;45.440;9.178;2023-02-04T06:31:34;9.70;95.30
32400;DHT22;45045;45.440;9.178;2023-02-04T06:34:03;9.70;95.30
32400;DHT22;45045;45.440;9.178;2023-02-04T06:36:29;9.80;95.20
32400;DHT22;45045;45.440;9.178;2023-02-04T06:38:55;9.90;95.30
32400;DHT22;45045;45.440;9.178;2023-02-04T06:41:22;9.90;95.50
32400;DHT22;45045;45.440;9.178;2023-02-04T06:43:48;9.80;96.30
32400;DHT22;45045;45.440;9.178;2023-02-04T06:46:13;10.00;95.60
32400;DHT22;45045;45.440;9.178;2023-02-04T06:48:39;9.90;95.60
32400;DHT22;45045;45.440;9.178;2023-02-04T06:51:05;9.90;96.00
32400;DHT22;45045;45.440;9.178;2023-02-04T06:53:30;10.30;96.40
32400;DHT22;45045;45.440;9.178;2023-02-04T06:55:56;10.10;95.80
32400;DHT22;45045;45.440;9.178;2023-02-04T06:58:22;10.00;95.70
32400;DHT22;45045;45.440;9.178;2023-02-04T07:00:47;10.00;95.90
32400;DHT22;45045;45.440;9.178;2023-02-04T07:03:13;10.00;96.60
32400;DHT22;45045;45.440;9.178;2023-02-04T07:05:39;10.00;96.10
32400;DHT22;45045;45.440;9.178;2023-02-04T07:08:05;10.10;96.40
32400;DHT22;45045;45.440;9.178;2023-02-04T07:10:31;10.00;95.90
32400;DHT22;45045;45.440;9.178;2023-02-04T07:12:57;10.00;96.00
32400;DHT22;45045;45.440;9.178;2023-02-04T07:15:23;9.80;96.30
32400;DHT22;45045;45.440;9.178;2023-02-04T07:17:49;9.90;96.40
32400;DHT22;45045;45.440;9.178;2023-02-04T07:20:14;9.80;96.50
32400;DHT22;45045;45.440;9.178;2023-02-04T07:22:40;9.80;96.60
32400;DHT22;45045;45.440;9.178;2023-02-04T07:25:06;9.90;97.00
32400;DHT22;45045;45.440;9.178;2023-02-04T07:27:32;9.90;96.80
32400;DHT22;45045;45.440;9.178;2023-02-04T07:29:58;9.90;96.80
32400;DHT22;45045;45.440;9.178;2023-02-04T07:32:24;10.00;97.00
32400;DHT22;45045;45.440;9.178;2023-02-04T07:34:52;10.00;97.20
32400;DHT22;45045;45.440;9.178;2023-02-04T07:37:18;10.30;96.60
32400;DHT22;45045;45.440;9.178;2023-02-04T07:39:45;10.90;97.00
32400;DHT22;45045;45.440;9.178;2023-02-04T07:42:10;11.30;95.20
32400;DHT22;45045;45.440;9.178;2023-02-04T07:44:36;11.80;93.90
32400;DHT22;45045;45.440;9.178;2023-02-04T07:47:02;12.00;92.80
32400;DHT22;45045;45.440;9.178;2023-02-04T07:49:28;12.60;93.20
32400;DHT22;45045;45.440;9.178;2023-02-04T07:51:53;12.70;91.60
32400;DHT22;45045;45.440;9.178;2023-02-04T07:54:19;13.10;90.80
32400;DHT22;45045;45.440;9.178;2023-02-04T07:56:45;13.20;90.20
32400;DHT22;45045;45.440;9.178;2023-02-04T07:59:10;13.40;90.00
32400;DHT22;45045;45.440;9.178;2023-02-04T08:01:36;13.70;88.70
32400;DHT22;45045;45.440;9.178;2023-02-04T08:04:02;13.90;87.10
32400;DHT22;45045;45.440;9.178;2023-02-04T08:06:27;14.10;85.90
32400;DHT22;45045;45.440;9.178;2023-02-04T08:08:53;14.30;84.80
32400;DHT22;45045;45.440;9.178;2023-02-04T08:11:19;14.50;84.00
32400;DHT22;45045;45.440;9.178;2023-02-04T08:13:45;14.60;82.10
32400;DHT22;45045;45.440;9.178;2023-02-04T08:16:10;14.80;81.60
32400;DHT22;45045;45.440;9.178;2023-02-04T08:18:36;15.10;81.10
32400;DHT22;45045;45.440;9.178;2023-02-04T08:21:02;15.30;79.70
32400;DHT22;45045;45.440;9.178;2023-02-04T08:23:29;15.50;78.50
32400;DHT22;45045;45.440;9.178;2023-02-04T08:25:55;15.70;77.90
32400;DHT22;45045;45.440;9.178;2023-02-04T08:28:20;15.90;77.30
32400;DHT22;45045;45.440;9.178;2023-02-04T08:30:46;16.30;75.20
32400;DHT22;45045;45.440;9.178;2023-02-04T08:33:12;16.60;73.90
32400;DHT22;45045;45.440;9.178;2023-02-04T08:35:37;16.90;73.10
32400;DHT22;45045;45.440;9.178;2023-02-04T08:38:03;17.20;71.60
32400;DHT22;45045;45.440;9.178;2023-02-04T08:40:29;17.40;70.20
32400;DHT22;45045;45.440;9.178;2023-02-04T08:42:55;17.50;69.80
32400;DHT22;45045;45.440;9.178;2023-02-04T08:45:20;17.70;68.50
32400;DHT22;45045;45.440;9.178;2023-02-04T08:47:46;17.90;67.50
32400;DHT22;45045;45.440;9.178;2023-02-04T08:50:12;18.10;66.50
32400;DHT22;45045;45.440;9.178;2023-02-04T08:52:38;18.40;66.30
32400;DHT22;45045;45.440;9.178;2023-02-04T08:55:04;18.80;64.10
32400;DHT22;45045;45.440;9.178;2023-02-04T08:57:29;19.10;62.80
32400;DHT22;45045;45.440;9.178;2023-02-04T08:59:55;19.40;61.60
32400;DHT22;45045;45.440;9.178;2023-02-04T09:02:21;19.70;59.60
32400;DHT22;45045;45.440;9.178;2023-02-04T09:04:47;19.90;58.00
32400;DHT22;45045;45.440;9.178;2023-02-04T09:07:12;20.00;57.60
32400;DHT22;45045;45.440;9.178;2023-02-04T09:09:38;19.90;57.50
32400;DHT22;45045;45.440;9.178;2023-02-04T09:12:04;20.10;56.90
32400;DHT22;45045;45.440;9.178;2023-02-04T09:14:30;20.10;57.60
32400;DHT22;45045;45.440;9.178;2023-02-04T09:17:01;20.40;57.10
32400;DHT22;45045;45.440;9.178;2023-02-04T09:19:27;20.70;57.20
32400;DHT22;45045;45.440;9.178;2023-02-04T09:21:53;21.10;55.10
32400;DHT22;45045;45.440;9.178;2023-02-04T09:24:19;21.30;55.30
32400;DHT22;45045;45.440;9.178;2023-02-04T09:26:48;21.40;53.80
32400;DHT22;45045;45.440;9.178;2023-02-04T09:29:14;21.50;56.50
32400;DHT22;45045;45.440;9.178;2023-02-04T09:31:39;21.60;58.00
32400;DHT22;45045;45.440;9.178;2023-02-04T09:34:06;21.60;58.90
32400;DHT22;45045;45.440;9.178;2023-02-04T09:36:31;22.20;55.40
32400;DHT22;45045;45.440;9.178;2023-02-04T09:39:05;22.60;53.70
32400;DHT22;45045;45.440;9.178;2023-02-04T09:41:32;22.20;61.70
32400;DHT22;45045;45.440;9.178;2023-02-04T09:43:59;21.90;66.70
32400;DHT22;45045;45.440;9.178;2023-02-04T09:46:25;21.70;69.90
32400;DHT22;45045;45.440;9.178;2023-02-04T09:48:53;22.40;60.70
32400;DHT22;45045;45.440;9.178;2023-02-04T09:51:25;23.10;57.90
32400;DHT22;45045;45.440;9.178;2023-02-04T09:53:52;23.70;57.00
32400;DHT22;45045;45.440;9.178;2023-02-04T09:56:19;24.60;53.10
32400;DHT22;45045;45.440;9.178;2023-02-04T09:58:45;24.50;56.40
32400;DHT22;45045;45.440;9.178;2023-02-04T10:01:16;23.80;60.70
32400;DHT22;45045;45.440;9.178;2023-02-04T10:03:44;23.30;61.70
32400;DHT22;45045;45.440;9.178;2023-02-04T10:06:20;23.40;63.10
32400;DHT22;45045;45.440;9.178;2023-02-04T10:08:49;23.70;60.50
32400;DHT22;45045;45.440;9.178;2023-02-04T10:11:18;23.40;65.40
32400;DHT22;45045;45.440;9.178;2023-02-04T10:13:46;23.30;66.30
32400;DHT22;45045;45.440;9.178;2023-02-04T10:16:22;23.80;59.90
32400;DHT22;45045;45.440;9.178;2023-02-04T10:19:01;24.00;61.60
32400;DHT22;45045;45.440;9.178;2023-02-04T10:21:29;24.50;56.50
32400;DHT22;45045;45.440;9.178;2023-02-04T10:23:58;24.60;59.60
32400;DHT22;45045;45.440;9.178;2023-02-04T10:26:26;25.40;55.60
32400;DHT22;45045;45.440;9.178;2023-02-04T10:29:02;26.10;54.10
32400;DHT22;45045;45.440;9.178;2023-02-04T10:31:40;26.80;50.30
32400;DHT22;45045;45.440;9.178;2023-02-04T10:36:42;27.10;50.00
32400;DHT22;45045;45.440;9.178;2023-02-04T10:41:46;27.20;48.70
32400;DHT22;45045;45.440;9.178;2023-02-04T10:44:14;27.40;45.80
32400;DHT22;45045;45.440;9.178;2023-02-04T10:46:40;27.60;48.10
32400;DHT22;45045;45.440;9.178;2023-02-04T10:49:23;28.10;45.30
32400;DHT22;45045;45.440;9.178;2023-02-04T10:51:50;28.50;41.30
32400;DHT22;45045;45.440;9.178;2023-02-04T10:54:19;28.80;41.00
32400;DHT22;45045;45.440;9.178;2023-02-04T10:56:59;29.20;41.70
32400;DHT22;45045;45.440;9.178;2023-02-04T10:59:28;29.60;38.30
32400;DHT22;45045;45.440;9.178;2023-02-04T11:01:55;29.60;40.10
32400;DHT22;45045;45.440;9.178;2023-02-04T11:04:22;29.60;38.80
32400;DHT22;45045;45.440;9.178;2023-02-04T11:06:49;29.70;37.90
32400;DHT22;45045;45.440;9.178;2023-02-04T11:09:19;30.00;36.00
32400;DHT22;45045;45.440;9.178;2023-02-04T11:11:52;30.20;35.50
32400;DHT22;45045;45.440;9.178;2023-02-04T11:14:38;29.60;43.10
32400;DHT22;45045;45.440;9.178;2023-02-04T11:17:04;28.90;46.90
32400;DHT22;45045;45.440;9.178;2023-02-04T11:19:38;28.60;44.60
32400;DHT22;45045;45.440;9.178;2023-02-04T11:22:35;29.00;46.10
32400;DHT22;45045;45.440;9.178;2023-02-04T11:25:01;29.30;47.20
32400;DHT22;45045;45.440;9.178;2023-02-04T11:27:38;28.80;49.20
32400;DHT22;45045;45.440;9.178;2023-02-04T11:30:20;28.90;47.20
32400;DHT22;45045;45.440;9.178;2023-02-04T11:33:04;28.90;48.50
32400;DHT22;45045;45.440;9.178;2023-02-04T11:35:31;28.50;52.80
32400;DHT22;45045;45.440;9.178;2023-02-04T11:37:57;28.90;46.60
32400;DHT22;45045;45.440;9.178;2023-02-04T11:40:30;29.10;47.10
32400;DHT22;45045;45.440;9.178;2023-02-04T11:45:27;28.60;50.10
32400;DHT22;45045;45.440;9.178;2023-02-04T11:47:56;28.60;53.70
32400;DHT22;45045;45.440;9.178;2023-02-04T11:50:31;28.90;52.20
32400;DHT22;45045;45.440;9.178;2023-02-04T11:52:58;28.60;57.00
32400;DHT22;45045;45.440;9.178;2023-02-04T11:55:24;28.40;53.40
32400;DHT22;45045;45.440;9.178;2023-02-04T11:57:53;28.50;56.20
32400;DHT22;45045;45.440;9.178;2023-02-04T12:00:29;28.70;58.90
32400;DHT22;45045;45.440;9.178;2023-02-04T12:05:40;29.20;57.60
32400;DHT22;45045;45.440;9.178;2023-02-04T12:08:33;28.60;61.40
32400;DHT22;45045;45.440;9.178;2023-02-04T12:11:22;28.50;58.50
32400;DHT22;45045;45.440;9.178;2023-02-04T12:13:53;28.40;62.10
32400;DHT22;45045;45.440;9.178;2023-02-04T12:16:19;28.30;63.00
32400;DHT22;45045;45.440;9.178;2023-02-04T12:18:45;28.40;63.20
32400;DHT22;45045;45.440;9.178;2023-02-04T12:21:19;29.10;57.10
32400;DHT22;45045;45.440;9.178;2023-02-04T12:23:47;29.40;49.90
32400;DHT22;45045;45.440;9.178;2023-02-04T12:26:34;29.50;46.20
32400;DHT22;45045;45.440;9.178;2023-02-04T12:29:00;30.40;49.70
32400;DHT22;45045;45.440;9.178;2023-02-04T12:31:28;31.40;44.80
32400;DHT22;45045;45.440;9.178;2023-02-04T12:33:54;32.00;44.00
32400;DHT22;45045;45.440;9.178;2023-02-04T12:36:20;32.40;43.00
32400;DHT22;45045;45.440;9.178;2023-02-04T12:38:50;32.80;41.60
32400;DHT22;45045;45.440;9.178;2023-02-04T12:41:16;33.10;40.10
32400;DHT22;45045;45.440;9.178;2023-02-04T12:43:46;33.30;35.00
32400;DHT22;45045;45.440;9.178;2023-02-04T12:46:16;33.20;37.80
32400;DHT22;45045;45.440;9.178;2023-02-04T12:48:45;33.20;36.00
32400;DHT22;45045;45.440;9.178;2023-02-04T12:51:31;33.10;35.30
32400;DHT22;45045;45.440;9.178;2023-02-04T12:53:58;33.00;32.00
32400;DHT22;45045;45.440;9.178;2023-02-04T12:56:24;32.80;34.60
32400;DHT22;45045;45.440;9.178;2023-02-04T12:58:50;32.90;35.20
32400;DHT22;45045;45.440;9.178;2023-02-04T13:01:16;32.80;33.50
32400;DHT22;45045;45.440;9.178;2023-02-04T13:03:42;32.90;31.90
32400;DHT22;45045;45.440;9.178;2023-02-04T13:06:08;32.30;38.20
32400;DHT22;45045;45.440;9.178;2023-02-04T13:08:34;31.40;41.40
32400;DHT22;45045;45.440;9.178;2023-02-04T13:11:02;31.20;35.20
32400;DHT22;45045;45.440;9.178;2023-02-04T13:13:28;31.30;33.70
32400;DHT22;45045;45.440;9.178;2023-02-04T13:15:53;31.10;41.70
32400;DHT22;45045;45.440;9.178;2023-02-04T13:18:19;30.30;45.50
32400;DHT22;45045;45.440;9.178;2023-02-04T13:20:45;29.80;42.70
32400;DHT22;45045;45.440;9.178;2023-02-04T13:23:10;29.40;41.40
32400;DHT22;45045;45.440;9.178;2023-02-04T13:25:36;29.40;46.20
32400;DHT22;45045;45.440;9.178;2023-02-04T13:28:02;29.20;48.30
32400;DHT22;45045;45.440;9.178;2023-02-04T13:30:27;29.40;47.40
32400;DHT22;45045;45.440;9.178;2023-02-04T13:32:53;29.60;47.80
32400;DHT22;45045;45.440;9.178;2023-02-04T13:35:19;29.80;40.10
32400;DHT22;45045;45.440;9.178;2023-02-04T13:37:45;29.70;47.30
32400;DHT22;45045;45.440;9.178;2023-02-04T13:40:14;29.40;45.30
32400;DHT22;45045;45.440;9.178;2023-02-04T13:42:43;29.60;34.90
32400;DHT22;45045;45.440;9.178;2023-02-04T13:45:11;30.10;32.90
32400;DHT22;45045;45.440;9.178;2023-02-04T13:47:37;30.50;34.00
32400;DHT22;45045;45.440;9.178;2023-02-04T13:50:04;30.90;32.70
32400;DHT22;45045;45.440;9.178;2023-02-04T13:52:30;30.50;42.40
32400;DHT22;45045;45.440;9.178;2023-02-04T13:54:59;30.10;45.20
32400;DHT22;45045;45.440;9.178;2023-02-04T13:57:27;29.50;41.00
32400;DHT22;45045;45.440;9.178;2023-02-04T13:59:55;29.70;43.20
32400;DHT22;45045;45.440;9.178;2023-02-04T14:02:23;29.70;45.30
32400;DHT22;45045;45.440;9.178;2023-02-04T14:04:52;29.80;41.60
32400;DHT22;45045;45.440;9.178;2023-02-04T14:07:18;29.60;36.30
32400;DHT22;45045;45.440;9.178;2023-02-04T14:09:43;29.70;45.70
32400;DHT22;45045;45.440;9.178;2023-02-04T14:12:11;29.50;49.50
32400;DHT22;45045;45.440;9.178;2023-02-04T14:14:37;29.30;43.80
32400;DHT22;45045;45.440;9.178;2023-02-04T14:17:30;29.30;40.00
32400;DHT22;45045;45.440;9.178;2023-02-04T14:19:58;29.00;48.10
32400;DHT22;45045;45.440;9.178;2023-02-04T14:22:42;28.90;50.50
32400;DHT22;45045;45.440;9.178;2023-02-04T14:25:10;28.90;47.70
32400;DHT22;45045;45.440;9.178;2023-02-04T14:27:36;28.70;43.50
32400;DHT22;45045;45.440;9.178;2023-02-04T14:30:14;28.50;43.70
32400;DHT22;45045;45.440;9.178;2023-02-04T14:32:40;28.80;46.20
32400;DHT22;45045;45.440;9.178;2023-02-04T14:35:06;28.80;50.10
32400;DHT22;45045;45.440;9.178;2023-02-04T14:37:32;28.50;52.30
32400;DHT22;45045;45.440;9.178;2023-02-04T14:39:57;28.40;49.80
32400;DHT22;45045;45.440;9.178;2023-02-04T14:42:23;28.40;49.30
32400;DHT22;45045;45.440;9.178;2023-02-04T14:44:52;28.20;52.30
32400;DHT22;45045;45.440;9.178;2023-02-04T14:47:20;27.60;51.80
32400;DHT22;45045;45.440;9.178;2023-02-04T14:49:46;27.50;54.50
32400;DHT22;45045;45.440;9.178;2023-02-04T14:52:15;27.30;50.40
32400;DHT22;45045;45.440;9.178;2023-02-04T14:54:41;26.90;56.60
32400;DHT22;45045;45.440;9.178;2023-02-04T14:57:12;26.80;57.60
32400;DHT22;45045;45.440;9.178;2023-02-04T14:59:38;26.90;51.50
32400;DHT22;45045;45.440;9.178;2023-02-04T15:02:06;26.80;55.00
32400;DHT22;45045;45.440;9.178;2023-02-04T15:04:34;26.80;45.70
32400;DHT22;45045;45.440;9.178;2023-02-04T15:07:00;26.80;51.10
32400;DHT22;45045;45.440;9.178;2023-02-04T15:09:26;26.90;56.40
32400;DHT22;45045;45.440;9.178;2023-02-04T15:11:55;26.90;52.00
32400;DHT22;45045;45.440;9.178;2023-02-04T15:14:23;26.70;57.60
32400;DHT22;45045;45.440;9.178;2023-02-04T15:16:53;26.20;58.90
32400;DHT22;45045;45.440;9.178;2023-02-04T15:19:19;26.10;59.80
32400;DHT22;45045;45.440;9.178;2023-02-04T15:21:45;26.10;59.50
32400;DHT22;45045;45.440;9.178;2023-02-04T15:24:11;25.90;57.30
32400;DHT22;45045;45.440;9.178;2023-02-04T15:26:37;25.90;60.50
32400;DHT22;45045;45.440;9.178;2023-02-04T15:29:04;25.90;60.80
32400;DHT22;45045;45.440;9.178;2023-02-04T15:31:30;25.70;61.30
32400;DHT22;45045;45.440;9.178;2023-02-04T15:33:56;25.50;62.20
32400;DHT22;45045;45.440;9.178;2023-02-04T15:36:22;25.50;62.60
32400;DHT22;45045;45.440;9.178;2023-02-04T15:38:48;25.50;61.30
32400;DHT22;45045;45.440;9.178;2023-02-04T15:41:14;26.00;60.00
32400;DHT22;45045;45.440;9.178;2023-02-04T15:43:39;26.30;58.90